x

Cedar Key, Fl (cdrf1) Weather Station

1:00pm - Mon 25th Sep 2017 All times are EDT. -4 hours from GMT.

  • Wind
    5mph, 6mph gusts
  • Air Temp 81°f
  • Sea Pressure 1013.6mb
  • Cedar Key, Fl
  • Cedar Key, Fl

More Historic Weather Station data

Upgrade to MSW Pro to gain access to the past 30 days of data for over 8000 Wavebouys and Weather Stations around the globe.

Join

Comparision Forecast

View Surf forecast
   
Mon 09/25 1:00pm 5 6 mph 1013.6mb 81f
12:00pm 6 7 mph 1014.2mb 80f
11:00am 6 7 mph 1013.9mb 79f
10:00am 7 7 mph 1014mb 77f
9:00am 7 8 mph 1013.9mb 75f
8:00am 9 10 mph 1013.4mb 75f
7:00am 10 11 mph 1013.2mb 75f
6:00am 9 11 mph 1012.8mb 76f
5:00am 9 10 mph 1012.6mb 76f
4:00am 9 10 mph 1012.6mb 76f
3:00am 10 13 mph 1012.5mb 76f
2:00am 14 15 mph 1012.6mb 78f
1:00am 14 15 mph 1012.9mb 78f
12:00am 14 16 mph 1013.2mb 79f
Sun 09/24 11:00pm 20 22 mph 1013.4mb 80f
10:00pm 20 21 mph 1013.3mb 82f
9:00pm 13 15 mph 1012.7mb 83f
8:00pm 9 11 mph 1011.9mb 85f
7:00pm 7 8 mph 1011.6mb 87f
6:00pm 5 5 mph 1011.4mb 88f
5:00pm 10 11 mph 1011.6mb 87f
4:00pm 1 2 mph 1011.9mb 87f
3:00pm 3 5 mph 1012.4mb 85f
2:00pm 9 10 mph 1013.2mb 83f
1:00pm 14 15 mph 1014.1mb 83f
12:00pm 9 10 mph 1013.9mb 82f
11:00am 14 15 mph 1014.2mb 80f
10:00am 13 14 mph 1014mb 78f
9:00am 11 13 mph 1013.9mb 77f
8:00am 9 14 mph 1013.5mb 75f
7:00am 8 11 mph 1013.2mb 74f
6:00am 8 10 mph 1012.7mb 74f
5:00am 8 11 mph 1012.5mb 74f
4:00am 8 10 mph 1012.5mb 75f
3:00am 7 9 mph 1012.6mb 75f
2:00am 7 9 mph 1013mb 75f
1:00am 5 7 mph 1013mb 76f
12:00am 10 13 mph 1013.4mb 77f
Sat 09/23 11:00pm 9 10 mph 1013.9mb 78f
10:00pm 9 10 mph 1013.6mb 78f
9:00pm 11 15 mph 1013.4mb 78f
8:00pm 8 9 mph 1012.6mb 78f
7:00pm 13 17 mph 1012.4mb 81f
6:00pm 23 26 mph 1012.5mb 79f
5:00pm 13 15 mph 1011.8mb 85f
4:00pm 18 20 mph 1012.1mb 85f
3:00pm 6 7 mph 1012.4mb 86f
2:00pm 6 8 mph 1013.2mb 85f
1:00pm 8 8 mph 1013.8mb 84f
12:00pm 11 13 mph 1014.4mb 82f
11:00am 16 17 mph 1014.5mb 80f
10:00am 11 15 mph 1014.3mb 79f
9:00am 8 10 mph 1014mb 76f
8:00am 7 9 mph 1013.8mb 74f
7:00am 8 10 mph 1013.7mb 73f
6:00am 7 9 mph 1013.3mb 74f
5:00am 7 10 mph 1012.8mb 74f
4:00am 8 10 mph 1013.3mb 74f
3:00am 9 10 mph 1013.2mb 76f
2:00am 13 14 mph 1013.5mb 77f
1:00am 13 15 mph 1013.7mb 77f
12:00am 11 14 mph 1013.8mb 78f
Fri 09/22 11:00pm 14 16 mph 1014.1mb 79f
10:00pm 18 21 mph 1014.1mb 80f
9:00pm 16 18 mph 1013.7mb 82f
8:00pm 18 22 mph 1013mb 83f
7:00pm 14 16 mph 1012.5mb 85f
6:00pm 13 14 mph 1012.2mb 85f
5:00pm 10 11 mph 1012.2mb 87f
4:00pm 6 7 mph 1012.8mb 87f
3:00pm 9 10 mph 1013.5mb 86f
2:00pm 11 15 mph 1014.3mb 85f
1:00pm 10 11 mph 1015mb 84f
12:00pm 10 14 mph 1015.6mb 82f
11:00am 11 15 mph 1016mb 81f
10:00am 8 9 mph 1015.9mb 79f
9:00am 9 11 mph 1015.7mb 76f
8:00am 6 8 mph 1015.4mb 75f
7:00am 7 8 mph 1015.2mb 74f
6:00am 6 7 mph 1014.9mb 74f
5:00am 7 8 mph 1014.4mb 75f
4:00am 7 9 mph 1014.5mb 75f
3:00am 7 8 mph 1014.9mb 77f
2:00am 10 11 mph 1015.1mb 78f
1:00am 14 16 mph 1015.4mb 80f
12:00am 14 16 mph 1015.6mb 80f
Thu 09/21 11:00pm 10 11 mph 1015.5mb 80f
10:00pm 6 7 mph 1015mb 78f
9:00pm 9 13 mph 1014.7mb 78f
8:00pm 7 9 mph 1014.2mb 80f
7:00pm 7 8 mph 1014.2mb 82f